sensor_id;sensor_type;location;lat;lon;timestamp;pressure;altitude;pressure_sealevel;temperature;humidity
38630;BME280;24384;51.988;4.644;2023-04-01T00:00:54;99155.66;;;8.47;100.00
38630;BME280;24384;51.988;4.644;2023-04-01T00:03:21;99162.97;;;8.40;100.00
38630;BME280;24384;51.988;4.644;2023-04-01T00:05:46;99157.00;;;8.37;100.00
38630;BME280;24384;51.988;4.644;2023-04-01T00:08:12;99166.59;;;8.38;100.00
38630;BME280;24384;51.988;4.644;2023-04-01T00:10:37;99165.19;;;8.31;100.00
38630;BME280;24384;51.988;4.644;2023-04-01T00:13:02;99166.06;;;8.31;100.00
38630;BME280;24384;51.988;4.644;2023-04-01T00:15:28;99173.16;;;8.29;100.00
38630;BME280;24384;51.988;4.644;2023-04-01T00:17:53;99167.91;;;8.29;100.00
38630;BME280;24384;51.988;4.644;2023-04-01T00:20:19;99162.72;;;8.28;100.00
38630;BME280;24384;51.988;4.644;2023-04-01T00:22:44;99168.22;;;8.23;100.00
38630;BME280;24384;51.988;4.644;2023-04-01T00:25:10;99164.53;;;8.27;100.00
38630;BME280;24384;51.988;4.644;2023-04-01T00:27:36;99167.22;;;8.25;100.00
38630;BME280;24384;51.988;4.644;2023-04-01T00:30:01;99168.06;;;8.26;100.00
38630;BME280;24384;51.988;4.644;2023-04-01T00:32:27;99171.78;;;8.22;100.00
38630;BME280;24384;51.988;4.644;2023-04-01T00:34:52;99174.41;;;8.22;100.00
38630;BME280;24384;51.988;4.644;2023-04-01T00:37:18;99176.25;;;8.20;100.00
38630;BME280;24384;51.988;4.644;2023-04-01T00:39:44;99177.97;;;8.21;100.00
38630;BME280;24384;51.988;4.644;2023-04-01T00:42:09;99178.88;;;8.20;100.00
38630;BME280;24384;51.988;4.644;2023-04-01T00:44:36;99178.09;;;8.18;100.00
38630;BME280;24384;51.988;4.644;2023-04-01T00:47:02;99188.22;;;8.25;100.00
38630;BME280;24384;51.988;4.644;2023-04-01T00:49:31;99194.41;;;8.24;100.00
38630;BME280;24384;51.988;4.644;2023-04-01T00:51:59;99194.56;;;8.21;100.00
38630;BME280;24384;51.988;4.644;2023-04-01T00:54:25;99191.31;;;8.16;100.00
38630;BME280;24384;51.988;4.644;2023-04-01T00:56:53;99203.44;;;8.19;100.00
38630;BME280;24384;51.988;4.644;2023-04-01T00:59:22;99197.41;;;8.17;100.00
38630;BME280;24384;51.988;4.644;2023-04-01T01:01:48;99191.31;;;8.16;100.00
38630;BME280;24384;51.988;4.644;2023-04-01T01:04:32;99201.91;;;8.15;100.00
38630;BME280;24384;51.988;4.644;2023-04-01T01:12:10;99205.28;;;8.17;100.00
38630;BME280;24384;51.988;4.644;2023-04-01T01:14:55;99200.25;;;8.12;100.00
38630;BME280;24384;51.988;4.644;2023-04-01T01:17:29;99199.56;;;8.09;100.00
38630;BME280;24384;51.988;4.644;2023-04-01T01:27:41;99218.63;;;8.12;100.00
38630;BME280;24384;51.988;4.644;2023-04-01T01:30:16;99211.56;;;8.14;100.00
38630;BME280;24384;51.988;4.644;2023-04-01T01:32:51;99225.75;;;8.10;100.00
38630;BME280;24384;51.988;4.644;2023-04-01T01:35:26;99220.34;;;8.13;100.00
38630;BME280;24384;51.988;4.644;2023-04-01T01:37:54;99223.19;;;8.09;100.00
38630;BME280;24384;51.988;4.644;2023-04-01T01:40:20;99218.94;;;8.06;100.00
38630;BME280;24384;51.988;4.644;2023-04-01T01:42:48;99226.75;;;8.07;100.00
38630;BME280;24384;51.988;4.644;2023-04-01T01:45:16;99222.22;;;8.11;100.00
38630;BME280;24384;51.988;4.644;2023-04-01T01:47:43;99225.75;;;8.10;100.00
38630;BME280;24384;51.988;4.644;2023-04-01T01:50:11;99237.75;;;8.16;100.00
38630;BME280;24384;51.988;4.644;2023-04-01T01:52:36;99238.03;;;8.10;100.00
38630;BME280;24384;51.988;4.644;2023-04-01T01:55:02;99238.81;;;8.12;100.00
38630;BME280;24384;51.988;4.644;2023-04-01T01:57:36;99234.25;;;8.15;100.00
38630;BME280;24384;51.988;4.644;2023-04-01T02:00:05;99230.78;;;8.15;100.00
38630;BME280;24384;51.988;4.644;2023-04-01T02:02:37;99241.28;;;8.15;100.00
38630;BME280;24384;51.988;4.644;2023-04-01T02:05:04;99244.91;;;8.12;100.00
38630;BME280;24384;51.988;4.644;2023-04-01T02:07:31;99247.31;;;8.17;100.00
38630;BME280;24384;51.988;4.644;2023-04-01T02:09:58;99248.31;;;8.14;100.00
38630;BME280;24384;51.988;4.644;2023-04-01T02:12:23;99259.59;;;8.16;100.00
38630;BME280;24384;51.988;4.644;2023-04-01T02:14:51;99258.81;;;8.14;100.00
38630;BME280;24384;51.988;4.644;2023-04-01T02:17:19;99260.34;;;8.18;100.00
38630;BME280;24384;51.988;4.644;2023-04-01T02:22:14;99269.94;;;8.19;100.00
38630;BME280;24384;51.988;4.644;2023-04-01T02:24:42;99272.44;;;8.22;100.00
38630;BME280;24384;51.988;4.644;2023-04-01T02:27:11;99276.75;;;8.23;100.00
38630;BME280;24384;51.988;4.644;2023-04-01T02:29:49;99281.16;;;8.23;100.00
38630;BME280;24384;51.988;4.644;2023-04-01T02:32:25;99274.28;;;8.20;100.00
38630;BME280;24384;51.988;4.644;2023-04-01T02:34:54;99279.41;;;8.23;100.00
38630;BME280;24384;51.988;4.644;2023-04-01T02:37:19;99275.13;;;8.21;100.00
38630;BME280;24384;51.988;4.644;2023-04-01T02:39:45;99287.19;;;8.25;100.00
38630;BME280;24384;51.988;4.644;2023-04-01T02:42:10;99291.50;;;8.26;100.00
38630;BME280;24384;51.988;4.644;2023-04-01T02:44:36;99277.69;;;8.22;100.00
38630;BME280;24384;51.988;4.644;2023-04-01T02:47:01;99286.47;;;8.21;100.00
38630;BME280;24384;51.988;4.644;2023-04-01T02:49:27;99287.34;;;8.22;100.00
38630;BME280;24384;51.988;4.644;2023-04-01T02:51:52;99292.44;;;8.25;100.00
38630;BME280;24384;51.988;4.644;2023-04-01T02:54:18;99293.00;;;8.32;100.00
38630;BME280;24384;51.988;4.644;2023-04-01T02:56:43;99295.91;;;8.45;100.00
38630;BME280;24384;51.988;4.644;2023-04-01T02:59:08;99301.41;;;8.38;100.00
38630;BME280;24384;51.988;4.644;2023-04-01T03:01:34;99297.81;;;8.41;100.00
38630;BME280;24384;51.988;4.644;2023-04-01T03:03:59;99316.34;;;8.38;100.00
38630;BME280;24384;51.988;4.644;2023-04-01T03:06:24;99317.88;;;8.44;100.00
38630;BME280;24384;51.988;4.644;2023-04-01T03:08:57;99321.78;;;8.52;100.00
38630;BME280;24384;51.988;4.644;2023-04-01T03:11:22;99314.06;;;8.49;100.00
38630;BME280;24384;51.988;4.644;2023-04-01T03:13:47;99320.34;;;8.47;100.00
38630;BME280;24384;51.988;4.644;2023-04-01T03:16:13;99329.00;;;8.49;100.00
38630;BME280;24384;51.988;4.644;2023-04-01T03:18:39;99332.31;;;8.52;100.00
38630;BME280;24384;51.988;4.644;2023-04-01T03:23:39;99346.09;;;8.57;100.00
38630;BME280;24384;51.988;4.644;2023-04-01T03:26:04;99342.44;;;8.60;100.00
38630;BME280;24384;51.988;4.644;2023-04-01T03:28:30;99344.09;;;8.63;100.00
38630;BME280;24384;51.988;4.644;2023-04-01T03:30:55;99348.13;;;8.70;100.00
38630;BME280;24384;51.988;4.644;2023-04-01T03:33:20;99361.25;;;8.70;100.00
38630;BME280;24384;51.988;4.644;2023-04-01T03:35:48;99356.31;;;8.81;100.00
38630;BME280;24384;51.988;4.644;2023-04-01T03:38:16;99363.66;;;8.74;100.00
38630;BME280;24384;51.988;4.644;2023-04-01T03:40:42;99368.06;;;8.74;100.00
38630;BME280;24384;51.988;4.644;2023-04-01T03:43:07;99372.31;;;8.76;100.00
38630;BME280;24384;51.988;4.644;2023-04-01T03:45:35;99375.41;;;8.85;100.00
38630;BME280;24384;51.988;4.644;2023-04-01T03:48:00;99375.25;;;8.88;100.00
38630;BME280;24384;51.988;4.644;2023-04-01T03:50:34;99380.38;;;8.91;100.00
38630;BME280;24384;51.988;4.644;2023-04-01T03:52:59;99382.16;;;8.90;100.00
38630;BME280;24384;51.988;4.644;2023-04-01T03:55:26;99389.44;;;8.85;100.00
38630;BME280;24384;51.988;4.644;2023-04-01T03:57:52;99386.50;;;8.91;100.00
38630;BME280;24384;51.988;4.644;2023-04-01T04:00:31;99394.69;;;8.85;100.00
38630;BME280;24384;51.988;4.644;2023-04-01T04:06:01;99405.81;;;8.90;100.00
38630;BME280;24384;51.988;4.644;2023-04-01T04:08:36;99412.03;;;9.07;100.00
38630;BME280;24384;51.988;4.644;2023-04-01T04:11:12;99412.50;;;8.98;100.00
38630;BME280;24384;51.988;4.644;2023-04-01T04:13:58;99425.66;;;8.98;100.00
38630;BME280;24384;51.988;4.644;2023-04-01T04:16:38;99424.22;;;8.90;100.00
38630;BME280;24384;51.988;4.644;2023-04-01T04:19:14;99435.50;;;8.92;100.00
38630;BME280;24384;51.988;4.644;2023-04-01T04:21:57;99436.94;;;9.00;100.00
38630;BME280;24384;51.988;4.644;2023-04-01T04:24:42;99436.47;;;8.91;100.00
38630;BME280;24384;51.988;4.644;2023-04-01T04:27:22;99445.81;;;8.97;100.00
38630;BME280;24384;51.988;4.644;2023-04-01T04:30:00;99447.44;;;9.00;100.00
38630;BME280;24384;51.988;4.644;2023-04-01T04:32:36;99451.34;;;8.91;100.00
38630;BME280;24384;51.988;4.644;2023-04-01T04:35:11;99456.53;;;8.92;100.00
38630;BME280;24384;51.988;4.644;2023-04-01T04:37:44;99460.66;;;8.98;100.00
38630;BME280;24384;51.988;4.644;2023-04-01T04:40:14;99467.50;;;8.83;100.00
38630;BME280;24384;51.988;4.644;2023-04-01T04:42:42;99475.03;;;8.91;100.00
38630;BME280;24384;51.988;4.644;2023-04-01T04:45:10;99468.63;;;8.96;100.00
38630;BME280;24384;51.988;4.644;2023-04-01T04:47:42;99482.16;;;8.89;100.00
38630;BME280;24384;51.988;4.644;2023-04-01T04:50:12;99482.00;;;8.92;100.00
38630;BME280;24384;51.988;4.644;2023-04-01T04:52:40;99482.38;;;8.84;100.00
38630;BME280;24384;51.988;4.644;2023-04-01T04:55:08;99490.09;;;8.87;100.00
38630;BME280;24384;51.988;4.644;2023-04-01T04:57:33;99491.03;;;8.86;100.00
38630;BME280;24384;51.988;4.644;2023-04-01T04:59:58;99492.75;;;8.87;100.00
38630;BME280;24384;51.988;4.644;2023-04-01T05:02:24;99496.28;;;8.86;100.00
38630;BME280;24384;51.988;4.644;2023-04-01T05:04:49;99492.75;;;8.87;100.00
38630;BME280;24384;51.988;4.644;2023-04-01T05:07:14;99507.88;;;8.82;100.00
38630;BME280;24384;51.988;4.644;2023-04-01T05:09:40;99508.94;;;8.78;100.00
38630;BME280;24384;51.988;4.644;2023-04-01T05:12:05;99515.19;;;8.94;100.00
38630;BME280;24384;51.988;4.644;2023-04-01T05:14:30;99523.22;;;8.91;100.00
38630;BME280;24384;51.988;4.644;2023-04-01T05:16:55;99526.78;;;8.90;100.00
38630;BME280;24384;51.988;4.644;2023-04-01T05:19:21;99534.03;;;8.85;100.00
38630;BME280;24384;51.988;4.644;2023-04-01T05:21:46;99538.69;;;8.78;100.00
38630;BME280;24384;51.988;4.644;2023-04-01T05:24:11;99537.50;;;8.86;100.00
38630;BME280;24384;51.988;4.644;2023-04-01T05:26:37;99539.28;;;8.85;100.00
38630;BME280;24384;51.988;4.644;2023-04-01T05:29:02;99545.53;;;8.83;100.00
38630;BME280;24384;51.988;4.644;2023-04-01T05:31:28;99547.59;;;8.76;100.00
38630;BME280;24384;51.988;4.644;2023-04-01T05:33:54;99549.94;;;8.82;100.00
38630;BME280;24384;51.988;4.644;2023-04-01T05:36:19;99554.91;;;8.88;100.00
38630;BME280;24384;51.988;4.644;2023-04-01T05:38:44;99567.13;;;8.89;100.00
38630;BME280;24384;51.988;4.644;2023-04-01T05:41:13;99570.69;;;8.88;100.00
38630;BME280;24384;51.988;4.644;2023-04-01T05:43:39;99570.47;;;8.74;100.00
38630;BME280;24384;51.988;4.644;2023-04-01T05:46:05;99574.25;;;8.68;100.00
38630;BME280;24384;51.988;4.644;2023-04-01T05:48:30;99577.56;;;8.72;100.00
38630;BME280;24384;51.988;4.644;2023-04-01T05:50:55;99585.38;;;8.73;100.00
38630;BME280;24384;51.988;4.644;2023-04-01T05:53:21;99580.75;;;8.78;100.00
38630;BME280;24384;51.988;4.644;2023-04-01T05:55:47;99585.31;;;8.75;100.00
38630;BME280;24384;51.988;4.644;2023-04-01T05:58:12;99588.66;;;8.78;100.00
38630;BME280;24384;51.988;4.644;2023-04-01T06:00:38;99593.69;;;8.83;100.00
38630;BME280;24384;51.988;4.644;2023-04-01T06:03:03;99599.75;;;8.85;100.00
38630;BME280;24384;51.988;4.644;2023-04-01T06:05:29;99603.16;;;8.87;100.00
38630;BME280;24384;51.988;4.644;2023-04-01T06:07:58;99606.56;;;8.89;100.00
38630;BME280;24384;51.988;4.644;2023-04-01T06:10:27;99608.50;;;8.86;100.00
38630;BME280;24384;51.988;4.644;2023-04-01T06:23:12;99640.88;;;8.86;100.00
38630;BME280;24384;51.988;4.644;2023-04-01T06:43:58;99678.09;;;8.77;100.00
38630;BME280;24384;51.988;4.644;2023-04-01T06:46:46;99683.50;;;8.74;100.00
38630;BME280;24384;51.988;4.644;2023-04-01T06:51:47;99685.34;;;8.72;100.00
38630;BME280;24384;51.988;4.644;2023-04-01T06:54:18;99682.72;;;8.72;100.00
38630;BME280;24384;51.988;4.644;2023-04-01T06:56:45;99690.97;;;8.83;100.00
38630;BME280;24384;51.988;4.644;2023-04-01T06:59:21;99688.13;;;8.69;100.00
38630;BME280;24384;51.988;4.644;2023-04-01T07:01:49;99693.50;;;8.66;100.00
38630;BME280;24384;51.988;4.644;2023-04-01T07:09:18;99702.56;;;8.79;100.00
38630;BME280;24384;51.988;4.644;2023-04-01T07:11:44;99706.09;;;8.78;100.00
38630;BME280;24384;51.988;4.644;2023-04-01T07:14:15;99712.00;;;8.83;100.00
38630;BME280;24384;51.988;4.644;2023-04-01T07:16:48;99715.19;;;8.91;100.00
38630;BME280;24384;51.988;4.644;2023-04-01T07:24:44;99720.09;;;8.99;100.00
38630;BME280;24384;51.988;4.644;2023-04-01T07:27:10;99726.75;;;8.87;100.00
38630;BME280;24384;51.988;4.644;2023-04-01T07:29:37;99733.53;;;8.93;100.00
38630;BME280;24384;51.988;4.644;2023-04-01T07:32:45;99734.94;;;9.00;100.00
38630;BME280;24384;51.988;4.644;2023-04-01T07:37:26;99747.94;;;9.03;100.00
38630;BME280;24384;51.988;4.644;2023-04-01T07:40:10;99748.97;;;9.01;100.00
38630;BME280;24384;51.988;4.644;2023-04-01T07:45:15;99759.34;;;9.04;100.00
38630;BME280;24384;51.988;4.644;2023-04-01T07:55:09;99760.25;;;9.03;100.00
38630;BME280;24384;51.988;4.644;2023-04-01T07:58:28;99767.72;;;8.93;100.00
38630;BME280;24384;51.988;4.644;2023-04-01T08:00:26;99769.13;;;9.00;100.00
38630;BME280;24384;51.988;4.644;2023-04-01T08:05:32;99776.19;;;8.79;100.00
38630;BME280;24384;51.988;4.644;2023-04-01T08:21:01;99800.22;;;9.11;100.00
38630;BME280;24384;51.988;4.644;2023-04-01T08:26:18;99807.03;;;9.36;100.00
38630;BME280;24384;51.988;4.644;2023-04-01T08:28:47;99814.59;;;9.43;100.00
38630;BME280;24384;51.988;4.644;2023-04-01T08:31:16;99818.44;;;9.36;100.00
38630;BME280;24384;51.988;4.644;2023-04-01T08:33:44;99823.56;;;9.39;100.00
38630;BME280;24384;51.988;4.644;2023-04-01T08:36:12;99820.25;;;9.34;100.00
38630;BME280;24384;51.988;4.644;2023-04-01T08:38:44;99828.91;;;9.57;100.00
38630;BME280;24384;51.988;4.644;2023-04-01T08:41:25;99823.31;;;9.64;100.00
38630;BME280;24384;51.988;4.644;2023-04-01T08:44:04;99828.34;;;9.69;99.62
38630;BME280;24384;51.988;4.644;2023-04-01T08:49:27;99832.44;;;9.95;99.10
38630;BME280;24384;51.988;4.644;2023-04-01T09:15:53;99872.84;;;9.75;99.10
38630;BME280;24384;51.988;4.644;2023-04-01T09:23:33;99882.81;;;9.68;98.74
38630;BME280;24384;51.988;4.644;2023-04-01T09:29:18;99884.50;;;9.70;99.45
38630;BME280;24384;51.988;4.644;2023-04-01T09:31:25;99884.19;;;9.57;99.47
38630;BME280;24384;51.988;4.644;2023-04-01T09:34:04;99889.88;;;9.47;99.54
38630;BME280;24384;51.988;4.644;2023-04-01T09:36:47;99892.16;;;9.55;99.54
38630;BME280;24384;51.988;4.644;2023-04-01T09:41:54;99892.72;;;9.82;99.68
38630;BME280;24384;51.988;4.644;2023-04-01T09:52:01;99900.09;;;9.74;98.77
38630;BME280;24384;51.988;4.644;2023-04-01T09:54:36;99906.59;;;9.86;98.22
38630;BME280;24384;51.988;4.644;2023-04-01T10:01:59;99914.50;;;9.86;98.37
38630;BME280;24384;51.988;4.644;2023-04-01T10:09:57;99926.19;;;9.99;98.02
38630;BME280;24384;51.988;4.644;2023-04-01T10:28:04;99949.78;;;10.02;97.28
38630;BME280;24384;51.988;4.644;2023-04-01T10:30:44;99942.38;;;10.11;97.41
38630;BME280;24384;51.988;4.644;2023-04-01T10:33:34;99949.78;;;10.02;98.11
38630;BME280;24384;51.988;4.644;2023-04-01T10:36:23;99943.34;;;10.08;98.03
38630;BME280;24384;51.988;4.644;2023-04-01T10:39:20;99949.06;;;10.18;97.91
38630;BME280;24384;51.988;4.644;2023-04-01T10:41:59;99952.00;;;10.12;96.84
38630;BME280;24384;51.988;4.644;2023-04-01T11:18:57;99985.97;;;10.18;98.50
38630;BME280;24384;51.988;4.644;2023-04-01T11:24:24;99989.22;;;10.23;98.81
38630;BME280;24384;51.988;4.644;2023-04-01T11:27:06;99989.63;;;10.34;97.71
38630;BME280;24384;51.988;4.644;2023-04-01T11:32:26;99990.50;;;10.35;97.15
38630;BME280;24384;51.988;4.644;2023-04-01T11:37:37;100000.84;;;10.39;97.93
38630;BME280;24384;51.988;4.644;2023-04-01T11:50:35;100008.66;;;10.60;96.62
38630;BME280;24384;51.988;4.644;2023-04-01T11:53:10;100020.84;;;10.44;97.02
38630;BME280;24384;51.988;4.644;2023-04-01T12:06:15;100039.59;;;10.75;95.92
38630;BME280;24384;51.988;4.644;2023-04-01T12:08:55;100043.00;;;10.78;96.21
38630;BME280;24384;51.988;4.644;2023-04-01T12:11:33;100041.09;;;11.00;95.89
38630;BME280;24384;51.988;4.644;2023-04-01T12:19:32;100048.91;;;10.83;95.70
38630;BME280;24384;51.988;4.644;2023-04-01T12:24:49;100054.91;;;10.67;95.78
38630;BME280;24384;51.988;4.644;2023-04-01T12:43:05;100066.78;;;11.33;94.12
38630;BME280;24384;51.988;4.644;2023-04-01T12:45:37;100073.97;;;11.66;92.95
38630;BME280;24384;51.988;4.644;2023-04-01T12:59:07;100090.25;;;11.57;92.18
38630;BME280;24384;51.988;4.644;2023-04-01T13:04:28;100100.72;;;11.41;91.81
38630;BME280;24384;51.988;4.644;2023-04-01T13:15:05;100109.31;;;11.27;93.75
38630;BME280;24384;51.988;4.644;2023-04-01T13:23:11;100121.00;;;11.02;94.09
38630;BME280;24384;51.988;4.644;2023-04-01T13:25:48;100129.72;;;11.04;94.87
38630;BME280;24384;51.988;4.644;2023-04-01T13:30:44;100131.28;;;11.08;95.37
38630;BME280;24384;51.988;4.644;2023-04-01T13:35:43;100143.72;;;11.06;94.33
38630;BME280;24384;51.988;4.644;2023-04-01T13:43:28;100148.56;;;11.16;94.94
38630;BME280;24384;51.988;4.644;2023-04-01T13:50:53;100146.56;;;11.21;93.99
38630;BME280;24384;51.988;4.644;2023-04-01T13:58:35;100153.69;;;11.19;94.86
38630;BME280;24384;51.988;4.644;2023-04-01T14:06:09;100161.31;;;11.06;96.07
38630;BME280;24384;51.988;4.644;2023-04-01T14:11:14;100173.22;;;10.96;95.94
38630;BME280;24384;51.988;4.644;2023-04-01T14:16:30;100175.31;;;11.08;95.56
38630;BME280;24384;51.988;4.644;2023-04-01T14:21:47;100181.34;;;11.10;95.49
38630;BME280;24384;51.988;4.644;2023-04-01T14:24:18;100186.91;;;11.04;95.44
38630;BME280;24384;51.988;4.644;2023-04-01T14:34:15;100199.41;;;11.00;94.99
38630;BME280;24384;51.988;4.644;2023-04-01T14:37:00;100202.16;;;10.97;96.39
38630;BME280;24384;51.988;4.644;2023-04-01T14:45:18;100203.59;;;11.04;96.35
38630;BME280;24384;51.988;4.644;2023-04-01T14:47:58;100210.63;;;10.85;96.95
38630;BME280;24384;51.988;4.644;2023-04-01T14:50:26;100207.88;;;10.88;97.48
38630;BME280;24384;51.988;4.644;2023-04-01T14:57:58;100223.81;;;10.85;96.97
38630;BME280;24384;51.988;4.644;2023-04-01T15:00:24;100221.47;;;10.79;97.21
38630;BME280;24384;51.988;4.644;2023-04-01T15:02:59;100227.91;;;10.71;97.42
38630;BME280;24384;51.988;4.644;2023-04-01T15:05:32;100236.81;;;10.69;97.55
38630;BME280;24384;51.988;4.644;2023-04-01T15:18:41;100256.16;;;10.69;98.06
38630;BME280;24384;51.988;4.644;2023-04-01T15:23:48;100269.38;;;10.88;96.79
38630;BME280;24384;51.988;4.644;2023-04-01T15:26:37;100267.47;;;10.71;98.15
38630;BME280;24384;51.988;4.644;2023-04-01T15:29:24;100274.72;;;10.87;97.39
38630;BME280;24384;51.988;4.644;2023-04-01T15:34:26;100290.59;;;11.06;96.69
38630;BME280;24384;51.988;4.644;2023-04-01T15:49:55;100310.34;;;11.37;94.36
38630;BME280;24384;51.988;4.644;2023-04-01T15:55:01;100322.22;;;11.28;93.67
38630;BME280;24384;51.988;4.644;2023-04-01T16:23:39;100372.94;;;10.93;94.30
38630;BME280;24384;51.988;4.644;2023-04-01T16:26:49;100374.47;;;10.99;94.57
38630;BME280;24384;51.988;4.644;2023-04-01T16:34:06;100390.41;;;10.96;94.27
38630;BME280;24384;51.988;4.644;2023-04-01T16:39:20;100408.34;;;10.88;94.06
38630;BME280;24384;51.988;4.644;2023-04-01T16:41:49;100412.09;;;10.82;95.27
38630;BME280;24384;51.988;4.644;2023-04-01T16:44:18;100412.41;;;10.74;94.81
38630;BME280;24384;51.988;4.644;2023-04-01T16:46:56;100424.59;;;10.55;95.13
38630;BME280;24384;51.988;4.644;2023-04-01T16:49:24;100428.19;;;10.54;94.93
38630;BME280;24384;51.988;4.644;2023-04-01T16:54:26;100435.03;;;10.58;95.05
38630;BME280;24384;51.988;4.644;2023-04-01T16:57:02;100440.34;;;10.34;95.97
38630;BME280;24384;51.988;4.644;2023-04-01T16:59:35;100445.31;;;10.42;95.35
38630;BME280;24384;51.988;4.644;2023-04-01T17:04:33;100455.03;;;10.42;95.51
38630;BME280;24384;51.988;4.644;2023-04-01T17:17:02;100483.56;;;10.54;95.73
38630;BME280;24384;51.988;4.644;2023-04-01T17:32:44;100525.25;;;10.19;94.11
38630;BME280;24384;51.988;4.644;2023-04-01T17:43:22;100546.97;;;10.00;94.38
38630;BME280;24384;51.988;4.644;2023-04-01T17:45:55;100557.69;;;9.96;94.65
38630;BME280;24384;51.988;4.644;2023-04-01T17:48:29;100562.69;;;10.03;94.70
38630;BME280;24384;51.988;4.644;2023-04-01T17:51:08;100570.59;;;10.03;93.95
38630;BME280;24384;51.988;4.644;2023-04-01T17:56:44;100573.00;;;10.10;93.88
38630;BME280;24384;51.988;4.644;2023-04-01T17:59:17;100579.16;;;10.10;93.62
38630;BME280;24384;51.988;4.644;2023-04-01T18:04:28;100590.97;;;9.98;92.96
38630;BME280;24384;51.988;4.644;2023-04-01T18:07:02;100595.22;;;10.02;93.25
38630;BME280;24384;51.988;4.644;2023-04-01T18:12:32;100616.66;;;9.92;93.78
38630;BME280;24384;51.988;4.644;2023-04-01T18:20:40;100636.63;;;9.72;94.48
38630;BME280;24384;51.988;4.644;2023-04-01T18:23:20;100639.31;;;9.71;94.42
38630;BME280;24384;51.988;4.644;2023-04-01T18:25:48;100641.28;;;9.64;94.59
38630;BME280;24384;51.988;4.644;2023-04-01T18:30:57;100652.78;;;9.61;95.21
38630;BME280;24384;51.988;4.644;2023-04-01T18:33:31;100663.22;;;9.64;95.21
38630;BME280;24384;51.988;4.644;2023-04-01T18:36:08;100671.50;;;9.52;94.67
38630;BME280;24384;51.988;4.644;2023-04-01T18:38:38;100674.19;;;9.50;94.66
38630;BME280;24384;51.988;4.644;2023-04-01T18:41:25;100679.44;;;9.50;95.22
38630;BME280;24384;51.988;4.644;2023-04-01T18:51:47;100702.59;;;9.67;95.02
38630;BME280;24384;51.988;4.644;2023-04-01T18:54:21;100714.88;;;9.68;94.30
38630;BME280;24384;51.988;4.644;2023-04-01T18:56:48;100718.50;;;9.64;94.35
38630;BME280;24384;51.988;4.644;2023-04-01T19:02:00;100736.69;;;9.44;93.87
38630;BME280;24384;51.988;4.644;2023-04-01T19:07:01;100737.31;;;9.52;93.22
38630;BME280;24384;51.988;4.644;2023-04-01T19:12:53;100758.50;;;9.47;93.25
38630;BME280;24384;51.988;4.644;2023-04-01T19:14:51;100766.91;;;9.30;94.57
38630;BME280;24384;51.988;4.644;2023-04-01T19:17:25;100762.63;;;9.26;93.50
38630;BME280;24384;51.988;4.644;2023-04-01T19:25:37;100791.34;;;9.34;93.20
38630;BME280;24384;51.988;4.644;2023-04-01T19:28:07;100786.41;;;9.23;93.43
38630;BME280;24384;51.988;4.644;2023-04-01T19:31:02;100795.81;;;9.32;93.40
38630;BME280;24384;51.988;4.644;2023-04-01T19:38:30;100807.69;;;9.14;93.69
38630;BME280;24384;51.988;4.644;2023-04-01T19:41:03;100813.06;;;9.11;93.44
38630;BME280;24384;51.988;4.644;2023-04-01T19:43:40;100817.50;;;9.09;93.61
38630;BME280;24384;51.988;4.644;2023-04-01T19:48:55;100820.31;;;9.03;93.53
38630;BME280;24384;51.988;4.644;2023-04-01T19:56:43;100841.34;;;9.03;92.62
38630;BME280;24384;51.988;4.644;2023-04-01T20:01:43;100850.06;;;9.05;92.25
38630;BME280;24384;51.988;4.644;2023-04-01T20:04:32;100860.91;;;8.92;92.32
38630;BME280;24384;51.988;4.644;2023-04-01T20:09:39;100875.09;;;8.87;92.75
38630;BME280;24384;51.988;4.644;2023-04-01T20:17:18;100897.59;;;8.97;91.59
38630;BME280;24384;51.988;4.644;2023-04-01T20:25:05;100902.28;;;8.86;92.19
38630;BME280;24384;51.988;4.644;2023-04-01T20:27:33;100913.56;;;8.89;92.03
38630;BME280;24384;51.988;4.644;2023-04-01T20:32:48;100920.03;;;8.77;92.07
38630;BME280;24384;51.988;4.644;2023-04-01T20:37:52;100925.66;;;8.62;92.40
38630;BME280;24384;51.988;4.644;2023-04-01T20:51:06;100959.94;;;8.57;91.51
38630;BME280;24384;51.988;4.644;2023-04-01T20:58:35;100973.81;;;8.63;91.32
38630;BME280;24384;51.988;4.644;2023-04-01T21:01:11;100992.47;;;8.52;91.01
38630;BME280;24384;51.988;4.644;2023-04-01T21:03:45;100992.53;;;8.49;91.69
38630;BME280;24384;51.988;4.644;2023-04-01T21:16:39;101020.03;;;8.31;91.13
38630;BME280;24384;51.988;4.644;2023-04-01T21:29:14;101049.06;;;8.24;90.56
38630;BME280;24384;51.988;4.644;2023-04-01T21:42:09;101075.22;;;8.31;90.60
38630;BME280;24384;51.988;4.644;2023-04-01T21:45:02;101088.47;;;8.24;91.40
38630;BME280;24384;51.988;4.644;2023-04-01T22:00:20;101118.94;;;8.35;89.86
38630;BME280;24384;51.988;4.644;2023-04-01T22:03:03;101116.22;;;8.39;89.95
38630;BME280;24384;51.988;4.644;2023-04-01T22:16:13;101138.53;;;8.17;89.64
38630;BME280;24384;51.988;4.644;2023-04-01T22:18:44;101138.66;;;8.11;89.57
38630;BME280;24384;51.988;4.644;2023-04-01T22:21:17;101143.31;;;7.95;91.13
38630;BME280;24384;51.988;4.644;2023-04-01T22:29:10;101168.78;;;7.91;89.93
38630;BME280;24384;51.988;4.644;2023-04-01T22:31:44;101164.38;;;7.93;89.59
38630;BME280;24384;51.988;4.644;2023-04-01T22:42:39;101187.34;;;7.80;89.77
38630;BME280;24384;51.988;4.644;2023-04-01T22:52:43;101205.50;;;7.94;89.48
38630;BME280;24384;51.988;4.644;2023-04-01T22:55:15;101203.94;;;7.82;89.25
38630;BME280;24384;51.988;4.644;2023-04-01T22:57:53;101210.09;;;7.78;89.24
38630;BME280;24384;51.988;4.644;2023-04-01T23:00:28;101217.13;;;7.78;89.11
38630;BME280;24384;51.988;4.644;2023-04-01T23:03:06;101218.94;;;7.74;89.06
38630;BME280;24384;51.988;4.644;2023-04-01T23:05:34;101226.06;;;7.64;89.21
38630;BME280;24384;51.988;4.644;2023-04-01T23:10:49;101226.00;;;7.69;87.99
38630;BME280;24384;51.988;4.644;2023-04-01T23:13:14;101234.97;;;7.56;89.30
38630;BME280;24384;51.988;4.644;2023-04-01T23:15:41;101243.75;;;7.53;89.94